sensor_id;sensor_type;location;lat;lon;timestamp;temperature;humidity
55721;DHT22;41626;53.098;6.168;2023-06-22T00:00:49;17.80;99.90
55721;DHT22;41626;53.098;6.168;2023-06-22T00:03:15;17.60;99.90
55721;DHT22;41626;53.098;6.168;2023-06-22T00:05:41;17.50;99.90
55721;DHT22;41626;53.098;6.168;2023-06-22T00:08:07;17.50;99.90
55721;DHT22;41626;53.098;6.168;2023-06-22T00:10:32;17.60;99.90
55721;DHT22;41626;53.098;6.168;2023-06-22T00:12:58;17.50;99.90
55721;DHT22;41626;53.098;6.168;2023-06-22T00:15:24;17.70;99.90
55721;DHT22;41626;53.098;6.168;2023-06-22T00:17:50;17.80;99.90
55721;DHT22;41626;53.098;6.168;2023-06-22T00:20:16;17.80;99.90
55721;DHT22;41626;53.098;6.168;2023-06-22T00:22:43;17.90;99.90
55721;DHT22;41626;53.098;6.168;2023-06-22T00:25:09;17.70;99.90
55721;DHT22;41626;53.098;6.168;2023-06-22T00:27:36;17.80;99.90
55721;DHT22;41626;53.098;6.168;2023-06-22T00:30:03;17.70;99.90
55721;DHT22;41626;53.098;6.168;2023-06-22T00:32:28;17.90;99.90
55721;DHT22;41626;53.098;6.168;2023-06-22T00:34:54;17.90;99.90
55721;DHT22;41626;53.098;6.168;2023-06-22T00:37:20;17.90;99.90
55721;DHT22;41626;53.098;6.168;2023-06-22T00:39:51;17.90;99.90
55721;DHT22;41626;53.098;6.168;2023-06-22T00:42:17;17.90;99.90
55721;DHT22;41626;53.098;6.168;2023-06-22T00:44:43;17.80;99.90
55721;DHT22;41626;53.098;6.168;2023-06-22T00:47:11;17.70;99.90
55721;DHT22;41626;53.098;6.168;2023-06-22T00:49:39;17.80;99.90
55721;DHT22;41626;53.098;6.168;2023-06-22T00:52:07;17.70;99.90
55721;DHT22;41626;53.098;6.168;2023-06-22T00:54:42;17.80;99.90
55721;DHT22;41626;53.098;6.168;2023-06-22T00:57:14;17.70;99.90
55721;DHT22;41626;53.098;6.168;2023-06-22T00:59:48;17.60;99.90
55721;DHT22;41626;53.098;6.168;2023-06-22T01:02:14;17.70;99.90
55721;DHT22;41626;53.098;6.168;2023-06-22T01:04:40;17.70;99.90
55721;DHT22;41626;53.098;6.168;2023-06-22T01:09:57;17.70;99.90
55721;DHT22;41626;53.098;6.168;2023-06-22T01:12:26;17.70;99.90
55721;DHT22;41626;53.098;6.168;2023-06-22T01:15:02;17.70;99.90
55721;DHT22;41626;53.098;6.168;2023-06-22T01:17:31;17.60;99.90
55721;DHT22;41626;53.098;6.168;2023-06-22T01:19:58;17.60;99.90
55721;DHT22;41626;53.098;6.168;2023-06-22T01:22:30;17.50;99.90
55721;DHT22;41626;53.098;6.168;2023-06-22T01:25:16;17.50;99.90
55721;DHT22;41626;53.098;6.168;2023-06-22T01:30:41;17.30;99.90
55721;DHT22;41626;53.098;6.168;2023-06-22T01:33:10;17.20;99.90
55721;DHT22;41626;53.098;6.168;2023-06-22T01:35:37;17.30;99.90
55721;DHT22;41626;53.098;6.168;2023-06-22T01:38:04;17.30;99.90
55721;DHT22;41626;53.098;6.168;2023-06-22T01:40:30;17.10;99.90
55721;DHT22;41626;53.098;6.168;2023-06-22T01:42:57;16.80;99.90
55721;DHT22;41626;53.098;6.168;2023-06-22T01:45:23;16.70;99.90
55721;DHT22;41626;53.098;6.168;2023-06-22T01:47:49;16.50;99.90
55721;DHT22;41626;53.098;6.168;2023-06-22T01:50:16;16.80;99.90
55721;DHT22;41626;53.098;6.168;2023-06-22T01:52:42;16.80;99.90
55721;DHT22;41626;53.098;6.168;2023-06-22T01:55:08;16.70;99.90
55721;DHT22;41626;53.098;6.168;2023-06-22T01:57:34;16.80;99.90
55721;DHT22;41626;53.098;6.168;2023-06-22T02:00:04;16.80;99.90
55721;DHT22;41626;53.098;6.168;2023-06-22T02:02:38;16.90;99.90
55721;DHT22;41626;53.098;6.168;2023-06-22T02:05:08;16.90;99.90
55721;DHT22;41626;53.098;6.168;2023-06-22T02:07:46;16.90;99.90
55721;DHT22;41626;53.098;6.168;2023-06-22T02:10:14;16.90;99.90
55721;DHT22;41626;53.098;6.168;2023-06-22T02:12:42;16.90;99.90
55721;DHT22;41626;53.098;6.168;2023-06-22T02:15:10;16.80;99.90
55721;DHT22;41626;53.098;6.168;2023-06-22T02:17:38;16.80;99.90
55721;DHT22;41626;53.098;6.168;2023-06-22T02:20:04;16.40;99.90
55721;DHT22;41626;53.098;6.168;2023-06-22T02:22:33;16.20;99.90
55721;DHT22;41626;53.098;6.168;2023-06-22T02:24:58;16.40;99.90
55721;DHT22;41626;53.098;6.168;2023-06-22T02:27:24;16.50;99.90
55721;DHT22;41626;53.098;6.168;2023-06-22T02:29:50;16.70;99.90
55721;DHT22;41626;53.098;6.168;2023-06-22T02:32:15;16.70;99.90
55721;DHT22;41626;53.098;6.168;2023-06-22T02:34:43;16.50;99.90
55721;DHT22;41626;53.098;6.168;2023-06-22T02:37:15;16.60;99.90
55721;DHT22;41626;53.098;6.168;2023-06-22T02:39:41;16.50;99.90
55721;DHT22;41626;53.098;6.168;2023-06-22T02:42:07;16.30;99.90
55721;DHT22;41626;53.098;6.168;2023-06-22T02:44:33;16.20;99.90
55721;DHT22;41626;53.098;6.168;2023-06-22T02:46:59;16.10;99.90
55721;DHT22;41626;53.098;6.168;2023-06-22T02:49:24;16.20;99.90
55721;DHT22;41626;53.098;6.168;2023-06-22T02:51:50;16.10;99.90
55721;DHT22;41626;53.098;6.168;2023-06-22T02:54:16;16.30;99.90
55721;DHT22;41626;53.098;6.168;2023-06-22T02:56:42;16.20;99.90
55721;DHT22;41626;53.098;6.168;2023-06-22T02:59:11;16.10;99.90
55721;DHT22;41626;53.098;6.168;2023-06-22T03:01:37;16.30;99.90
55721;DHT22;41626;53.098;6.168;2023-06-22T03:04:06;16.30;99.90
55721;DHT22;41626;53.098;6.168;2023-06-22T03:06:32;16.40;99.90
55721;DHT22;41626;53.098;6.168;2023-06-22T03:09:03;16.30;99.90
55721;DHT22;41626;53.098;6.168;2023-06-22T03:11:30;16.10;99.90
55721;DHT22;41626;53.098;6.168;2023-06-22T03:13:56;16.10;99.90
55721;DHT22;41626;53.098;6.168;2023-06-22T03:16:22;16.00;99.90
55721;DHT22;41626;53.098;6.168;2023-06-22T03:18:47;16.10;99.90
55721;DHT22;41626;53.098;6.168;2023-06-22T03:21:13;16.10;99.90
55721;DHT22;41626;53.098;6.168;2023-06-22T03:23:41;16.20;99.90
55721;DHT22;41626;53.098;6.168;2023-06-22T03:26:08;16.00;99.90
55721;DHT22;41626;53.098;6.168;2023-06-22T03:28:33;15.90;99.90
55721;DHT22;41626;53.098;6.168;2023-06-22T03:30:59;15.80;99.90
55721;DHT22;41626;53.098;6.168;2023-06-22T03:33:25;15.70;99.90
55721;DHT22;41626;53.098;6.168;2023-06-22T03:35:51;15.90;99.90
55721;DHT22;41626;53.098;6.168;2023-06-22T03:38:17;15.80;99.90
55721;DHT22;41626;53.098;6.168;2023-06-22T03:40:43;15.80;99.90
55721;DHT22;41626;53.098;6.168;2023-06-22T03:43:09;15.80;99.90
55721;DHT22;41626;53.098;6.168;2023-06-22T03:45:34;15.60;99.90
55721;DHT22;41626;53.098;6.168;2023-06-22T03:48:00;15.60;99.90
55721;DHT22;41626;53.098;6.168;2023-06-22T03:50:26;15.70;99.90
55721;DHT22;41626;53.098;6.168;2023-06-22T03:52:52;15.90;99.90
55721;DHT22;41626;53.098;6.168;2023-06-22T03:55:19;15.80;99.90
55721;DHT22;41626;53.098;6.168;2023-06-22T03:57:45;15.90;99.90
55721;DHT22;41626;53.098;6.168;2023-06-22T04:00:12;16.00;99.90
55721;DHT22;41626;53.098;6.168;2023-06-22T04:02:38;16.00;99.90
55721;DHT22;41626;53.098;6.168;2023-06-22T04:05:04;15.90;99.90
55721;DHT22;41626;53.098;6.168;2023-06-22T04:07:30;15.90;99.90
55721;DHT22;41626;53.098;6.168;2023-06-22T04:09:56;15.70;99.90
55721;DHT22;41626;53.098;6.168;2023-06-22T04:12:22;15.80;99.90
55721;DHT22;41626;53.098;6.168;2023-06-22T04:14:47;15.80;99.90
55721;DHT22;41626;53.098;6.168;2023-06-22T04:17:13;15.90;99.90
55721;DHT22;41626;53.098;6.168;2023-06-22T04:19:43;15.90;99.90
55721;DHT22;41626;53.098;6.168;2023-06-22T04:22:08;15.90;99.90
55721;DHT22;41626;53.098;6.168;2023-06-22T04:24:35;15.70;99.90
55721;DHT22;41626;53.098;6.168;2023-06-22T04:27:01;15.80;99.90
55721;DHT22;41626;53.098;6.168;2023-06-22T04:29:28;15.70;99.90
55721;DHT22;41626;53.098;6.168;2023-06-22T04:31:56;15.70;99.90
55721;DHT22;41626;53.098;6.168;2023-06-22T04:34:24;15.60;99.90
55721;DHT22;41626;53.098;6.168;2023-06-22T04:36:54;15.80;99.90
55721;DHT22;41626;53.098;6.168;2023-06-22T04:39:21;15.70;99.90
55721;DHT22;41626;53.098;6.168;2023-06-22T04:41:47;15.60;99.90
55721;DHT22;41626;53.098;6.168;2023-06-22T04:44:17;15.60;99.90
55721;DHT22;41626;53.098;6.168;2023-06-22T04:46:59;15.90;99.90
55721;DHT22;41626;53.098;6.168;2023-06-22T04:49:30;15.90;99.90
55721;DHT22;41626;53.098;6.168;2023-06-22T04:52:07;16.00;99.90
55721;DHT22;41626;53.098;6.168;2023-06-22T04:54:34;16.00;99.90
55721;DHT22;41626;53.098;6.168;2023-06-22T04:57:04;16.20;99.90
55721;DHT22;41626;53.098;6.168;2023-06-22T04:59:30;16.10;99.90
55721;DHT22;41626;53.098;6.168;2023-06-22T05:02:03;16.30;99.90
55721;DHT22;41626;53.098;6.168;2023-06-22T05:04:29;16.60;99.90
55721;DHT22;41626;53.098;6.168;2023-06-22T05:06:59;16.50;99.90
55721;DHT22;41626;53.098;6.168;2023-06-22T05:09:25;16.40;99.90
55721;DHT22;41626;53.098;6.168;2023-06-22T05:11:51;16.50;99.90
55721;DHT22;41626;53.098;6.168;2023-06-22T05:14:17;16.60;99.90
55721;DHT22;41626;53.098;6.168;2023-06-22T05:16:43;16.60;99.90
55721;DHT22;41626;53.098;6.168;2023-06-22T05:19:10;16.40;99.90
55721;DHT22;41626;53.098;6.168;2023-06-22T05:21:36;16.60;99.90
55721;DHT22;41626;53.098;6.168;2023-06-22T05:24:02;16.60;99.90
55721;DHT22;41626;53.098;6.168;2023-06-22T05:26:29;16.70;99.90
55721;DHT22;41626;53.098;6.168;2023-06-22T05:28:56;16.50;99.90
55721;DHT22;41626;53.098;6.168;2023-06-22T05:31:22;16.50;99.90
55721;DHT22;41626;53.098;6.168;2023-06-22T05:33:49;16.80;99.90
55721;DHT22;41626;53.098;6.168;2023-06-22T05:36:15;16.80;99.90
55721;DHT22;41626;53.098;6.168;2023-06-22T05:38:41;16.80;99.90
55721;DHT22;41626;53.098;6.168;2023-06-22T05:41:07;17.00;99.90
55721;DHT22;41626;53.098;6.168;2023-06-22T05:43:34;17.20;99.90
55721;DHT22;41626;53.098;6.168;2023-06-22T05:46:03;17.20;99.90
55721;DHT22;41626;53.098;6.168;2023-06-22T05:48:29;17.10;99.90
55721;DHT22;41626;53.098;6.168;2023-06-22T05:50:55;17.30;99.90
55721;DHT22;41626;53.098;6.168;2023-06-22T05:53:20;17.20;99.90
55721;DHT22;41626;53.098;6.168;2023-06-22T05:55:46;17.30;99.90
55721;DHT22;41626;53.098;6.168;2023-06-22T05:58:12;17.30;99.90
55721;DHT22;41626;53.098;6.168;2023-06-22T06:00:39;17.40;99.90
55721;DHT22;41626;53.098;6.168;2023-06-22T06:03:09;17.40;99.90
55721;DHT22;41626;53.098;6.168;2023-06-22T06:05:36;17.50;99.90
55721;DHT22;41626;53.098;6.168;2023-06-22T06:08:04;17.80;99.90
55721;DHT22;41626;53.098;6.168;2023-06-22T06:10:33;17.80;99.90
55721;DHT22;41626;53.098;6.168;2023-06-22T06:12:59;17.90;99.90
55721;DHT22;41626;53.098;6.168;2023-06-22T06:15:28;18.10;99.90
55721;DHT22;41626;53.098;6.168;2023-06-22T06:17:54;18.20;99.90
55721;DHT22;41626;53.098;6.168;2023-06-22T06:20:22;18.10;99.90
55721;DHT22;41626;53.098;6.168;2023-06-22T06:22:49;18.20;99.90
55721;DHT22;41626;53.098;6.168;2023-06-22T06:25:15;18.30;99.90
55721;DHT22;41626;53.098;6.168;2023-06-22T06:27:48;18.30;99.90
55721;DHT22;41626;53.098;6.168;2023-06-22T06:30:15;18.60;99.90
55721;DHT22;41626;53.098;6.168;2023-06-22T06:32:41;18.70;99.90
55721;DHT22;41626;53.098;6.168;2023-06-22T06:35:09;18.70;99.90
55721;DHT22;41626;53.098;6.168;2023-06-22T06:37:39;18.90;99.90
55721;DHT22;41626;53.098;6.168;2023-06-22T06:40:06;18.90;99.90
55721;DHT22;41626;53.098;6.168;2023-06-22T06:42:48;18.90;99.90
55721;DHT22;41626;53.098;6.168;2023-06-22T06:47:43;19.30;99.90
55721;DHT22;41626;53.098;6.168;2023-06-22T06:50:09;19.20;99.90
55721;DHT22;41626;53.098;6.168;2023-06-22T06:52:35;19.20;99.90
55721;DHT22;41626;53.098;6.168;2023-06-22T06:55:01;19.50;99.90
55721;DHT22;41626;53.098;6.168;2023-06-22T06:57:27;19.60;99.90
55721;DHT22;41626;53.098;6.168;2023-06-22T06:59:57;19.70;99.90
55721;DHT22;41626;53.098;6.168;2023-06-22T07:02:23;19.70;99.90
55721;DHT22;41626;53.098;6.168;2023-06-22T07:04:49;20.30;99.90
55721;DHT22;41626;53.098;6.168;2023-06-22T07:07:15;20.50;99.90
55721;DHT22;41626;53.098;6.168;2023-06-22T07:09:41;20.80;99.90
55721;DHT22;41626;53.098;6.168;2023-06-22T07:12:07;21.20;99.90
55721;DHT22;41626;53.098;6.168;2023-06-22T07:14:33;21.30;99.90
55721;DHT22;41626;53.098;6.168;2023-06-22T07:16:58;21.10;99.90
55721;DHT22;41626;53.098;6.168;2023-06-22T07:19:25;21.40;99.90
55721;DHT22;41626;53.098;6.168;2023-06-22T07:21:55;21.70;99.90
55721;DHT22;41626;53.098;6.168;2023-06-22T07:24:21;21.80;99.90
55721;DHT22;41626;53.098;6.168;2023-06-22T07:26:47;21.90;99.90
55721;DHT22;41626;53.098;6.168;2023-06-22T07:29:18;22.40;99.90
55721;DHT22;41626;53.098;6.168;2023-06-22T07:31:46;22.50;99.90
55721;DHT22;41626;53.098;6.168;2023-06-22T07:34:13;22.80;99.90
55721;DHT22;41626;53.098;6.168;2023-06-22T07:36:38;22.90;99.90
55721;DHT22;41626;53.098;6.168;2023-06-22T07:39:04;23.20;99.90
55721;DHT22;41626;53.098;6.168;2023-06-22T07:41:31;22.90;99.90
55721;DHT22;41626;53.098;6.168;2023-06-22T07:43:57;23.30;99.90
55721;DHT22;41626;53.098;6.168;2023-06-22T07:46:23;23.30;99.90
55721;DHT22;41626;53.098;6.168;2023-06-22T07:48:48;23.90;99.90
55721;DHT22;41626;53.098;6.168;2023-06-22T07:51:14;23.40;99.90
55721;DHT22;41626;53.098;6.168;2023-06-22T07:53:41;22.80;99.90
55721;DHT22;41626;53.098;6.168;2023-06-22T07:56:07;22.10;99.90
55721;DHT22;41626;53.098;6.168;2023-06-22T07:58:35;22.00;99.90
55721;DHT22;41626;53.098;6.168;2023-06-22T08:01:01;21.80;99.90
55721;DHT22;41626;53.098;6.168;2023-06-22T08:03:26;22.00;99.90
55721;DHT22;41626;53.098;6.168;2023-06-22T08:05:52;21.90;99.90
55721;DHT22;41626;53.098;6.168;2023-06-22T08:08:18;21.90;99.90
55721;DHT22;41626;53.098;6.168;2023-06-22T08:10:43;22.10;99.90
55721;DHT22;41626;53.098;6.168;2023-06-22T08:13:10;22.20;99.90
55721;DHT22;41626;53.098;6.168;2023-06-22T08:15:36;22.30;99.90
55721;DHT22;41626;53.098;6.168;2023-06-22T08:18:01;22.10;99.90
55721;DHT22;41626;53.098;6.168;2023-06-22T08:20:27;22.30;99.90
55721;DHT22;41626;53.098;6.168;2023-06-22T08:22:55;22.60;99.90
55721;DHT22;41626;53.098;6.168;2023-06-22T08:25:21;22.50;99.90
55721;DHT22;41626;53.098;6.168;2023-06-22T08:27:47;22.70;99.90
55721;DHT22;41626;53.098;6.168;2023-06-22T08:30:14;22.70;99.90
55721;DHT22;41626;53.098;6.168;2023-06-22T08:32:39;22.70;99.90
55721;DHT22;41626;53.098;6.168;2023-06-22T08:35:06;22.70;99.90
55721;DHT22;41626;53.098;6.168;2023-06-22T08:37:35;23.00;99.90
55721;DHT22;41626;53.098;6.168;2023-06-22T08:40:03;23.10;99.90
55721;DHT22;41626;53.098;6.168;2023-06-22T08:42:40;22.80;99.90
55721;DHT22;41626;53.098;6.168;2023-06-22T08:45:07;23.20;99.90
55721;DHT22;41626;53.098;6.168;2023-06-22T08:47:33;23.00;99.90
55721;DHT22;41626;53.098;6.168;2023-06-22T08:49:59;23.30;99.90
55721;DHT22;41626;53.098;6.168;2023-06-22T08:52:25;23.40;99.90
55721;DHT22;41626;53.098;6.168;2023-06-22T08:54:51;23.20;99.90
55721;DHT22;41626;53.098;6.168;2023-06-22T08:57:17;23.10;99.90
55721;DHT22;41626;53.098;6.168;2023-06-22T08:59:43;23.20;99.90
55721;DHT22;41626;53.098;6.168;2023-06-22T09:02:08;23.20;99.90
55721;DHT22;41626;53.098;6.168;2023-06-22T09:04:36;23.60;99.90
55721;DHT22;41626;53.098;6.168;2023-06-22T09:07:02;23.60;99.90
55721;DHT22;41626;53.098;6.168;2023-06-22T09:09:28;23.50;99.90
55721;DHT22;41626;53.098;6.168;2023-06-22T09:11:54;23.70;99.90
55721;DHT22;41626;53.098;6.168;2023-06-22T09:14:19;23.40;99.90
55721;DHT22;41626;53.098;6.168;2023-06-22T09:16:45;23.10;99.90
55721;DHT22;41626;53.098;6.168;2023-06-22T09:19:11;23.40;99.90
55721;DHT22;41626;53.098;6.168;2023-06-22T09:21:37;23.60;99.90
55721;DHT22;41626;53.098;6.168;2023-06-22T09:24:03;23.60;99.90
55721;DHT22;41626;53.098;6.168;2023-06-22T09:26:29;23.60;99.90
55721;DHT22;41626;53.098;6.168;2023-06-22T09:28:55;23.90;99.90
55721;DHT22;41626;53.098;6.168;2023-06-22T09:31:20;24.00;99.90
55721;DHT22;41626;53.098;6.168;2023-06-22T09:33:53;24.20;99.90
55721;DHT22;41626;53.098;6.168;2023-06-22T09:36:20;24.10;99.90
55721;DHT22;41626;53.098;6.168;2023-06-22T09:38:47;24.00;99.90
55721;DHT22;41626;53.098;6.168;2023-06-22T09:41:12;24.20;99.90
55721;DHT22;41626;53.098;6.168;2023-06-22T09:43:38;23.80;99.90
55721;DHT22;41626;53.098;6.168;2023-06-22T09:46:04;23.90;99.90
55721;DHT22;41626;53.098;6.168;2023-06-22T09:48:29;24.00;99.90
55721;DHT22;41626;53.098;6.168;2023-06-22T09:50:56;24.50;99.90
55721;DHT22;41626;53.098;6.168;2023-06-22T09:53:21;24.40;99.90
55721;DHT22;41626;53.098;6.168;2023-06-22T09:55:47;24.40;99.90
55721;DHT22;41626;53.098;6.168;2023-06-22T09:58:13;24.50;99.90
55721;DHT22;41626;53.098;6.168;2023-06-22T10:00:39;24.30;99.90
55721;DHT22;41626;53.098;6.168;2023-06-22T10:03:07;23.90;99.90
55721;DHT22;41626;53.098;6.168;2023-06-22T10:05:33;23.90;99.90
55721;DHT22;41626;53.098;6.168;2023-06-22T10:07:58;24.50;99.90
55721;DHT22;41626;53.098;6.168;2023-06-22T10:10:24;24.30;99.90
55721;DHT22;41626;53.098;6.168;2023-06-22T10:12:57;24.60;99.90
55721;DHT22;41626;53.098;6.168;2023-06-22T10:15:24;24.80;99.90
55721;DHT22;41626;53.098;6.168;2023-06-22T10:17:49;24.80;99.90
55721;DHT22;41626;53.098;6.168;2023-06-22T10:20:15;24.80;99.90
55721;DHT22;41626;53.098;6.168;2023-06-22T10:22:44;25.20;99.90
55721;DHT22;41626;53.098;6.168;2023-06-22T10:25:12;24.90;99.90
55721;DHT22;41626;53.098;6.168;2023-06-22T10:27:38;24.90;99.90
55721;DHT22;41626;53.098;6.168;2023-06-22T10:30:11;24.80;99.90
55721;DHT22;41626;53.098;6.168;2023-06-22T10:32:38;24.40;99.90
55721;DHT22;41626;53.098;6.168;2023-06-22T10:35:05;24.30;99.90
55721;DHT22;41626;53.098;6.168;2023-06-22T10:37:31;24.50;99.90
55721;DHT22;41626;53.098;6.168;2023-06-22T10:39:57;24.20;99.90
55721;DHT22;41626;53.098;6.168;2023-06-22T10:42:22;24.80;99.90
55721;DHT22;41626;53.098;6.168;2023-06-22T10:44:48;24.60;99.90
55721;DHT22;41626;53.098;6.168;2023-06-22T10:47:14;24.50;99.90
55721;DHT22;41626;53.098;6.168;2023-06-22T10:49:40;24.30;99.90
55721;DHT22;41626;53.098;6.168;2023-06-22T10:52:09;24.40;99.90
55721;DHT22;41626;53.098;6.168;2023-06-22T10:54:36;24.50;99.90
55721;DHT22;41626;53.098;6.168;2023-06-22T10:57:02;24.80;99.90
55721;DHT22;41626;53.098;6.168;2023-06-22T10:59:28;24.30;99.90
55721;DHT22;41626;53.098;6.168;2023-06-22T11:01:58;24.70;99.90
55721;DHT22;41626;53.098;6.168;2023-06-22T11:04:24;25.10;99.90
55721;DHT22;41626;53.098;6.168;2023-06-22T11:06:51;24.90;99.90
55721;DHT22;41626;53.098;6.168;2023-06-22T11:09:17;24.80;99.90
55721;DHT22;41626;53.098;6.168;2023-06-22T11:11:49;25.00;99.90
55721;DHT22;41626;53.098;6.168;2023-06-22T11:14:16;25.30;99.90
55721;DHT22;41626;53.098;6.168;2023-06-22T11:16:42;25.10;99.90
55721;DHT22;41626;53.098;6.168;2023-06-22T11:19:08;24.80;99.90
55721;DHT22;41626;53.098;6.168;2023-06-22T11:21:34;25.00;99.90
55721;DHT22;41626;53.098;6.168;2023-06-22T11:24:00;24.90;99.90
55721;DHT22;41626;53.098;6.168;2023-06-22T11:26:25;24.70;99.90
55721;DHT22;41626;53.098;6.168;2023-06-22T11:28:54;24.90;99.90
55721;DHT22;41626;53.098;6.168;2023-06-22T11:31:20;25.30;99.90
55721;DHT22;41626;53.098;6.168;2023-06-22T11:33:46;25.20;99.90
55721;DHT22;41626;53.098;6.168;2023-06-22T11:36:13;25.20;99.90
55721;DHT22;41626;53.098;6.168;2023-06-22T11:38:39;24.80;99.90
55721;DHT22;41626;53.098;6.168;2023-06-22T11:41:09;24.80;99.90
55721;DHT22;41626;53.098;6.168;2023-06-22T11:43:35;24.50;99.90
55721;DHT22;41626;53.098;6.168;2023-06-22T11:46:02;24.70;99.90
55721;DHT22;41626;53.098;6.168;2023-06-22T11:48:28;24.50;99.90
55721;DHT22;41626;53.098;6.168;2023-06-22T11:50:54;24.50;99.90
55721;DHT22;41626;53.098;6.168;2023-06-22T11:53:25;24.40;99.90
55721;DHT22;41626;53.098;6.168;2023-06-22T11:55:51;24.50;99.90
55721;DHT22;41626;53.098;6.168;2023-06-22T11:58:18;24.40;99.90
55721;DHT22;41626;53.098;6.168;2023-06-22T12:00:44;24.50;99.90
55721;DHT22;41626;53.098;6.168;2023-06-22T12:03:10;24.50;99.90
55721;DHT22;41626;53.098;6.168;2023-06-22T12:05:37;24.40;99.90
55721;DHT22;41626;53.098;6.168;2023-06-22T12:08:03;24.80;99.90
55721;DHT22;41626;53.098;6.168;2023-06-22T12:10:30;24.80;99.90
55721;DHT22;41626;53.098;6.168;2023-06-22T12:12:56;24.70;99.90
55721;DHT22;41626;53.098;6.168;2023-06-22T12:15:23;24.70;99.90
55721;DHT22;41626;53.098;6.168;2023-06-22T12:17:49;24.70;99.90
55721;DHT22;41626;53.098;6.168;2023-06-22T12:20:14;24.90;99.90
55721;DHT22;41626;53.098;6.168;2023-06-22T12:22:41;24.80;99.90
55721;DHT22;41626;53.098;6.168;2023-06-22T12:25:08;24.60;99.90
55721;DHT22;41626;53.098;6.168;2023-06-22T12:27:34;24.50;99.90
55721;DHT22;41626;53.098;6.168;2023-06-22T12:30:00;24.70;99.90
55721;DHT22;41626;53.098;6.168;2023-06-22T12:32:26;24.50;99.90
55721;DHT22;41626;53.098;6.168;2023-06-22T12:34:52;24.60;99.90
55721;DHT22;41626;53.098;6.168;2023-06-22T12:37:18;24.70;99.90
55721;DHT22;41626;53.098;6.168;2023-06-22T12:39:44;24.80;99.90
55721;DHT22;41626;53.098;6.168;2023-06-22T12:42:10;24.80;99.90
55721;DHT22;41626;53.098;6.168;2023-06-22T12:44:40;24.60;99.90
55721;DHT22;41626;53.098;6.168;2023-06-22T12:47:06;24.50;99.90
55721;DHT22;41626;53.098;6.168;2023-06-22T12:49:34;24.60;99.90
55721;DHT22;41626;53.098;6.168;2023-06-22T12:52:00;24.30;99.90
55721;DHT22;41626;53.098;6.168;2023-06-22T12:54:26;24.40;99.90
55721;DHT22;41626;53.098;6.168;2023-06-22T12:56:53;24.50;99.90
55721;DHT22;41626;53.098;6.168;2023-06-22T12:59:18;24.20;99.90
55721;DHT22;41626;53.098;6.168;2023-06-22T13:01:44;24.30;99.90
55721;DHT22;41626;53.098;6.168;2023-06-22T13:04:11;24.20;99.90
55721;DHT22;41626;53.098;6.168;2023-06-22T13:06:43;24.20;99.90
55721;DHT22;41626;53.098;6.168;2023-06-22T13:09:10;24.30;99.90
55721;DHT22;41626;53.098;6.168;2023-06-22T13:11:35;24.60;99.90
55721;DHT22;41626;53.098;6.168;2023-06-22T13:14:01;24.60;99.90
55721;DHT22;41626;53.098;6.168;2023-06-22T13:16:27;24.40;99.90
55721;DHT22;41626;53.098;6.168;2023-06-22T13:18:53;24.50;99.90
55721;DHT22;41626;53.098;6.168;2023-06-22T13:21:18;24.20;99.90
55721;DHT22;41626;53.098;6.168;2023-06-22T13:23:44;23.90;99.90
55721;DHT22;41626;53.098;6.168;2023-06-22T13:26:10;24.10;99.90
55721;DHT22;41626;53.098;6.168;2023-06-22T13:28:35;24.20;99.90
55721;DHT22;41626;53.098;6.168;2023-06-22T13:31:01;23.80;99.90
55721;DHT22;41626;53.098;6.168;2023-06-22T13:33:27;24.00;99.90
55721;DHT22;41626;53.098;6.168;2023-06-22T13:35:53;24.10;99.90
55721;DHT22;41626;53.098;6.168;2023-06-22T13:38:18;24.20;99.90
55721;DHT22;41626;53.098;6.168;2023-06-22T13:40:44;24.00;99.90
55721;DHT22;41626;53.098;6.168;2023-06-22T13:43:10;24.20;99.90
55721;DHT22;41626;53.098;6.168;2023-06-22T13:45:36;24.10;99.90
55721;DHT22;41626;53.098;6.168;2023-06-22T13:48:02;24.00;99.90
55721;DHT22;41626;53.098;6.168;2023-06-22T13:50:28;23.90;99.90
55721;DHT22;41626;53.098;6.168;2023-06-22T13:52:55;23.50;99.90
55721;DHT22;41626;53.098;6.168;2023-06-22T13:55:23;23.50;99.90
55721;DHT22;41626;53.098;6.168;2023-06-22T13:57:48;23.90;99.90
55721;DHT22;41626;53.098;6.168;2023-06-22T14:00:15;23.50;99.90
55721;DHT22;41626;53.098;6.168;2023-06-22T14:02:41;23.50;99.90
55721;DHT22;41626;53.098;6.168;2023-06-22T14:05:07;23.60;99.90
55721;DHT22;41626;53.098;6.168;2023-06-22T14:07:33;23.70;99.90
55721;DHT22;41626;53.098;6.168;2023-06-22T14:10:00;23.50;99.90
55721;DHT22;41626;53.098;6.168;2023-06-22T14:12:29;23.30;99.90
55721;DHT22;41626;53.098;6.168;2023-06-22T14:14:55;23.20;99.90
55721;DHT22;41626;53.098;6.168;2023-06-22T14:17:21;23.20;99.90
55721;DHT22;41626;53.098;6.168;2023-06-22T14:19:51;22.90;99.90
55721;DHT22;41626;53.098;6.168;2023-06-22T14:22:20;23.00;99.90
55721;DHT22;41626;53.098;6.168;2023-06-22T14:24:48;22.90;99.90
55721;DHT22;41626;53.098;6.168;2023-06-22T14:27:15;22.80;99.90
55721;DHT22;41626;53.098;6.168;2023-06-22T14:29:41;22.90;99.90
55721;DHT22;41626;53.098;6.168;2023-06-22T14:32:07;22.70;99.90
55721;DHT22;41626;53.098;6.168;2023-06-22T14:34:33;22.70;99.90
55721;DHT22;41626;53.098;6.168;2023-06-22T14:37:08;22.90;99.90
55721;DHT22;41626;53.098;6.168;2023-06-22T14:39:43;22.90;99.90
55721;DHT22;41626;53.098;6.168;2023-06-22T14:42:09;22.80;99.90
55721;DHT22;41626;53.098;6.168;2023-06-22T14:44:35;22.60;99.90
55721;DHT22;41626;53.098;6.168;2023-06-22T14:47:00;22.70;99.90
55721;DHT22;41626;53.098;6.168;2023-06-22T14:49:26;22.50;99.90
55721;DHT22;41626;53.098;6.168;2023-06-22T14:51:52;22.50;99.90
55721;DHT22;41626;53.098;6.168;2023-06-22T14:54:18;22.40;99.90
55721;DHT22;41626;53.098;6.168;2023-06-22T14:56:44;22.50;99.90
55721;DHT22;41626;53.098;6.168;2023-06-22T14:59:10;22.40;99.90
55721;DHT22;41626;53.098;6.168;2023-06-22T15:01:35;22.30;99.90
55721;DHT22;41626;53.098;6.168;2023-06-22T15:04:01;22.20;99.90
55721;DHT22;41626;53.098;6.168;2023-06-22T15:06:28;22.10;99.90
55721;DHT22;41626;53.098;6.168;2023-06-22T15:08:53;22.00;99.90
55721;DHT22;41626;53.098;6.168;2023-06-22T15:11:20;22.10;99.90
55721;DHT22;41626;53.098;6.168;2023-06-22T15:13:45;22.00;99.90
55721;DHT22;41626;53.098;6.168;2023-06-22T15:16:11;21.80;99.90
55721;DHT22;41626;53.098;6.168;2023-06-22T15:18:37;21.80;99.90
55721;DHT22;41626;53.098;6.168;2023-06-22T15:21:04;21.70;99.90
55721;DHT22;41626;53.098;6.168;2023-06-22T15:23:30;21.70;99.90
55721;DHT22;41626;53.098;6.168;2023-06-22T15:25:57;21.70;99.90
55721;DHT22;41626;53.098;6.168;2023-06-22T15:28:23;21.70;99.90
55721;DHT22;41626;53.098;6.168;2023-06-22T15:30:50;21.60;99.90
55721;DHT22;41626;53.098;6.168;2023-06-22T15:33:16;21.80;99.90
55721;DHT22;41626;53.098;6.168;2023-06-22T15:35:42;21.80;99.90